createdAt,value
2022-10-28T00:01:13.771Z,101695.41
2022-10-28T00:03:43.776Z,101696.38
2022-10-28T00:06:20.514Z,101698.06
2022-10-28T00:08:47.521Z,101698.72
2022-10-28T00:11:23.532Z,101696.22
2022-10-28T00:13:52.692Z,101699.72
2022-10-28T00:16:26.951Z,101672.03
2022-10-28T00:18:54.316Z,101663.28
2022-10-28T00:21:26.514Z,101666.72
2022-10-28T00:23:53.518Z,101685.00
2022-10-28T00:26:23.319Z,101686.69
2022-10-28T00:28:52.904Z,101691.81
2022-10-28T00:31:21.144Z,101685.84
2022-10-28T00:33:48.140Z,101687.63
2022-10-28T00:36:18.890Z,101671.19
2022-10-28T00:38:54.483Z,101659.81
2022-10-28T00:41:26.334Z,101685.97
2022-10-28T00:43:55.610Z,101689.44
2022-10-28T00:46:28.449Z,101679.81
2022-10-28T00:49:00.224Z,101676.22
2022-10-28T00:51:27.437Z,101684.88
2022-10-28T00:53:56.189Z,101660.69
2022-10-28T00:59:00.721Z,101665.75
2022-10-28T01:01:27.334Z,101682.25
2022-10-28T01:03:55.876Z,101679.81
2022-10-28T01:06:24.744Z,101663.22
2022-10-28T01:08:53.261Z,101671.91
2022-10-28T01:11:50.306Z,101681.41
2022-10-28T01:14:23.409Z,101663.25
2022-10-28T01:17:05.106Z,101676.91
2022-10-28T01:20:09.337Z,101674.31
2022-10-28T01:22:45.608Z,101677.81
2022-10-28T01:25:33.871Z,101678.09
2022-10-28T01:28:37.487Z,101650.25
2022-10-28T01:31:11.134Z,101669.28
2022-10-28T01:33:49.833Z,101670.94
2022-10-28T01:36:26.347Z,101663.06
2022-10-28T01:39:34.151Z,101662.13
2022-10-28T01:42:55.080Z,101667.38
2022-10-28T01:45:33.784Z,101667.56
2022-10-28T01:48:08.692Z,101661.47
2022-10-28T01:50:43.922Z,101653.63
2022-10-28T01:53:14.767Z,101645.91
2022-10-28T01:55:45.763Z,101639.84
2022-10-28T01:58:15.232Z,101641.59
2022-10-28T02:00:43.520Z,101655.41
2022-10-28T02:03:10.376Z,101653.69
2022-10-28T02:05:44.329Z,101662.16
2022-10-28T02:08:19.835Z,101658.84
2022-10-28T02:11:10.398Z,101664.63
2022-10-28T02:14:00.834Z,101640.38
2022-10-28T02:16:36.504Z,101664.75
2022-10-28T02:19:08.246Z,101663.00
2022-10-28T02:21:37.854Z,101662.16
2022-10-28T02:24:11.501Z,101665.06
2022-10-28T02:26:50.151Z,101645.91
2022-10-28T02:29:30.967Z,101665.13
2022-10-28T02:32:09.369Z,101674.84
2022-10-28T02:34:43.151Z,101669.56
2022-10-28T02:37:18.359Z,101663.53
2022-10-28T02:39:51.008Z,101644.25
2022-10-28T02:42:28.739Z,101661.88
2022-10-28T02:45:01.649Z,101680.84
2022-10-28T02:47:34.145Z,101680.09
2022-10-28T02:50:05.756Z,101638.00
2022-10-28T02:52:34.290Z,101674.59
2022-10-28T02:55:06.919Z,101662.41
2022-10-28T02:57:37.217Z,101658.69
2022-10-28T03:00:10.311Z,101673.72
2022-10-28T03:02:38.203Z,101669.94
2022-10-28T03:05:06.485Z,101661.28
2022-10-28T03:07:33.472Z,101679.81
2022-10-28T03:10:00.105Z,101654.44
2022-10-28T03:12:26.688Z,101651.19
2022-10-28T03:14:55.341Z,101675.44
2022-10-28T03:17:22.032Z,101671.09
2022-10-28T03:19:48.664Z,101662.44
2022-10-28T03:22:15.256Z,101667.56
2022-10-28T03:24:41.881Z,101645.69
2022-10-28T03:27:08.972Z,101679.66
2022-10-28T03:29:35.555Z,101650.09
2022-10-28T03:32:02.153Z,101629.47
2022-10-28T03:34:28.877Z,101675.44
2022-10-28T03:36:55.469Z,101653.59
2022-10-28T03:39:25.107Z,101657.69
2022-10-28T03:41:51.712Z,101647.25
2022-10-28T03:44:19.509Z,101665.59
2022-10-28T03:46:49.028Z,101675.06
2022-10-28T03:49:15.651Z,101650.47
2022-10-28T03:51:42.304Z,101642.94
2022-10-28T03:54:08.994Z,101665.50
2022-10-28T03:56:35.717Z,101658.56
2022-10-28T03:59:02.312Z,101645.44
2022-10-28T04:01:29.009Z,101627.44
2022-10-28T04:03:55.654Z,101668.47
2022-10-28T04:06:22.315Z,101646.75
2022-10-28T04:08:49.087Z,101656.13
2022-10-28T04:11:15.655Z,101646.34
2022-10-28T04:13:42.268Z,101653.34
2022-10-28T04:16:08.888Z,101641.09
2022-10-28T04:18:35.692Z,101674.19
2022-10-28T04:21:03.663Z,101657.34
2022-10-28T04:23:30.380Z,101669.63
2022-10-28T04:25:57.103Z,101678.72
2022-10-28T04:28:26.523Z,101654.47
2022-10-28T04:30:53.239Z,101614.53
2022-10-28T04:33:19.849Z,101654.28
2022-10-28T04:35:46.498Z,101661.38
2022-10-28T04:38:14.314Z,101677.72
2022-10-28T04:40:41.392Z,101656.13
2022-10-28T04:43:09.899Z,101678.56
2022-10-28T04:45:37.614Z,101658.66
2022-10-28T04:48:04.466Z,101669.84
2022-10-28T04:50:31.183Z,101660.44
2022-10-28T04:53:01.501Z,101674.19
2022-10-28T04:55:28.157Z,101666.31
2022-10-28T04:57:59.395Z,101669.84
2022-10-28T05:00:27.707Z,101661.03
2022-10-28T05:02:54.852Z,101654.69
2022-10-28T05:05:21.916Z,101673.84
2022-10-28T05:07:48.752Z,101664.16
2022-10-28T05:10:18.375Z,101651.59
2022-10-28T05:12:49.087Z,101650.88
2022-10-28T05:15:16.119Z,101676.97
2022-10-28T05:17:47.289Z,101650.97
2022-10-28T05:20:17.364Z,101671.75
2022-10-28T05:22:48.045Z,101656.94
2022-10-28T05:25:14.876Z,101661.19
2022-10-28T05:27:42.579Z,101649.03
2022-10-28T05:30:10.230Z,101640.44
2022-10-28T05:32:36.912Z,101661.31
2022-10-28T05:35:04.017Z,101664.38
2022-10-28T05:37:30.940Z,101668.97
2022-10-28T05:39:57.589Z,101651.47
2022-10-28T05:42:24.311Z,101640.34
2022-10-28T05:44:50.953Z,101681.31
2022-10-28T05:47:17.754Z,101672.41
2022-10-28T05:49:44.481Z,101650.88
2022-10-28T05:52:11.139Z,101670.88
2022-10-28T05:54:40.478Z,101659.38
2022-10-28T05:57:07.136Z,101677.03
2022-10-28T05:59:36.195Z,101657.06
2022-10-28T06:02:03.377Z,101675.63
2022-10-28T06:04:31.137Z,101664.06
2022-10-28T06:06:58.728Z,101669.00
2022-10-28T06:09:27.538Z,101672.66
2022-10-28T06:11:52.639Z,101661.16
2022-10-28T06:14:19.235Z,101674.56
2022-10-28T06:16:49.001Z,101679.16
2022-10-28T06:19:15.859Z,101676.22
2022-10-28T06:21:43.190Z,101690.50
2022-10-28T06:24:12.832Z,101673.00
2022-10-28T06:26:39.780Z,101691.22
2022-10-28T06:29:11.499Z,101696.19
2022-10-28T06:31:44.194Z,101660.69
2022-10-28T06:34:11.508Z,101701.94
2022-10-28T06:36:38.585Z,101709.16
2022-10-28T06:39:05.898Z,101706.22
2022-10-28T06:41:33.024Z,101697.09
2022-10-28T06:44:00.089Z,101700.53
2022-10-28T06:46:28.091Z,101714.13
2022-10-28T06:48:57.083Z,101718.53
2022-10-28T06:51:23.997Z,101723.16
2022-10-28T06:53:51.756Z,101704.91
2022-10-28T06:56:19.051Z,101724.22
2022-10-28T06:58:50.859Z,101691.03
2022-10-28T07:01:18.036Z,101721.59
2022-10-28T07:03:44.934Z,101736.94
2022-10-28T07:06:11.647Z,101723.91
2022-10-28T07:08:38.332Z,101733.34
2022-10-28T07:11:05.157Z,101710.22
2022-10-28T07:13:31.874Z,101703.78
2022-10-28T07:16:00.740Z,101719.78
2022-10-28T07:18:29.659Z,101719.47
2022-10-28T07:21:00.781Z,101732.88
2022-10-28T07:23:28.324Z,101694.00
2022-10-28T07:25:56.478Z,101724.88
2022-10-28T07:28:25.785Z,101698.56
2022-10-28T07:30:52.804Z,101720.28
2022-10-28T07:33:19.610Z,101717.53
2022-10-28T07:35:46.384Z,101705.19
2022-10-28T07:38:12.978Z,101682.56
2022-10-28T07:40:39.613Z,101707.75
2022-10-28T07:43:06.360Z,101700.72
2022-10-28T07:45:34.708Z,101682.97
2022-10-28T07:48:01.370Z,101671.13
2022-10-28T07:50:29.065Z,101673.84
2022-10-28T07:52:56.147Z,101696.34
2022-10-28T07:55:23.432Z,101690.03
2022-10-28T07:57:50.076Z,101703.75
2022-10-28T08:00:16.908Z,101697.03
2022-10-28T08:02:43.525Z,101690.06
2022-10-28T08:05:10.518Z,101687.81
2022-10-28T08:07:38.687Z,101702.03
2022-10-28T08:10:06.167Z,101688.63
2022-10-28T08:12:35.170Z,101704.94
2022-10-28T08:15:02.761Z,101704.22
2022-10-28T08:17:29.555Z,101682.72
2022-10-28T08:19:56.247Z,101688.75
2022-10-28T08:22:22.957Z,101689.56
2022-10-28T08:24:49.558Z,101703.56
2022-10-28T08:27:16.226Z,101715.69
2022-10-28T08:29:42.807Z,101718.63
2022-10-28T08:32:09.617Z,101694.16
2022-10-28T08:34:39.260Z,101720.41
2022-10-28T08:37:11.888Z,101698.50
2022-10-28T08:39:38.547Z,101693.97
2022-10-28T08:42:23.553Z,101711.13
2022-10-28T08:45:16.067Z,101723.56
2022-10-28T08:47:54.787Z,101718.06
2022-10-28T08:50:26.843Z,101707.06
2022-10-28T08:52:59.142Z,101716.84
2022-10-28T08:55:34.063Z,101702.59
2022-10-28T08:58:16.732Z,101699.22
2022-10-28T09:00:48.701Z,101695.34
2022-10-28T09:03:20.554Z,101725.97
2022-10-28T09:05:50.158Z,101716.06
2022-10-28T09:08:24.288Z,101731.75
2022-10-28T09:11:18.424Z,101733.50
2022-10-28T09:13:59.202Z,101716.53
2022-10-28T09:16:48.715Z,101709.94
2022-10-28T09:19:47.293Z,101723.16
2022-10-28T09:22:52.905Z,101723.00
2022-10-28T09:25:43.745Z,101714.50
2022-10-28T09:28:10.292Z,101725.22
2022-10-28T09:30:54.892Z,101723.19
2022-10-28T09:33:36.786Z,101718.63
2022-10-28T09:36:06.195Z,101722.16
2022-10-28T09:38:39.854Z,101717.50
2022-10-28T09:41:23.194Z,101718.50
2022-10-28T09:44:07.922Z,101667.84
2022-10-28T09:46:37.175Z,101680.28
2022-10-28T09:49:22.778Z,101698.97
2022-10-28T09:52:07.725Z,101715.94
2022-10-28T09:54:38.076Z,101705.19
2022-10-28T09:57:05.220Z,101682.00
2022-10-28T09:59:32.247Z,101696.47
2022-10-28T10:02:00.108Z,101710.38
2022-10-28T10:04:31.252Z,101714.25
2022-10-28T10:07:10.899Z,101709.22
2022-10-28T10:09:39.071Z,101703.19
2022-10-28T10:12:09.179Z,101701.66
2022-10-28T10:14:44.545Z,101687.84
2022-10-28T10:17:24.532Z,101699.53
2022-10-28T10:20:20.741Z,101688.53
2022-10-28T10:22:49.737Z,101688.56
2022-10-28T10:25:19.450Z,101699.47
2022-10-28T10:28:00.502Z,101704.47
2022-10-28T10:30:47.262Z,101703.97
2022-10-28T10:33:21.582Z,101688.16
2022-10-28T10:36:00.276Z,101682.97
2022-10-28T10:38:28.989Z,101694.31
2022-10-28T10:40:56.345Z,101680.53
2022-10-28T10:43:34.669Z,101700.97
2022-10-28T10:46:18.096Z,101695.28
2022-10-28T10:48:45.476Z,101689.75
2022-10-28T10:51:41.316Z,101691.63
2022-10-28T10:54:15.402Z,101668.44
2022-10-28T10:56:43.036Z,101683.25
2022-10-28T10:59:18.167Z,101685.06
2022-10-28T11:01:44.967Z,101668.97
2022-10-28T11:04:22.228Z,101678.00
2022-10-28T11:06:54.833Z,101671.19
2022-10-28T11:09:24.375Z,101668.69
2022-10-28T11:11:55.474Z,101648.16
2022-10-28T11:14:31.427Z,101670.75
2022-10-28T11:17:00.762Z,101652.59
2022-10-28T11:19:37.669Z,101661.50
2022-10-28T11:22:35.238Z,101675.47
2022-10-28T11:25:23.691Z,101673.25
2022-10-28T11:28:15.567Z,101673.19
2022-10-28T11:31:13.315Z,101668.59
2022-10-28T11:33:56.631Z,101645.81
2022-10-28T11:36:43.652Z,101662.88
2022-10-28T11:39:20.855Z,101644.44
2022-10-28T11:42:24.876Z,101664.75
2022-10-28T11:44:59.236Z,101664.72
2022-10-28T11:47:53.680Z,101662.09
2022-10-28T11:50:42.299Z,101653.41
2022-10-28T11:53:31.822Z,101656.97
2022-10-28T11:56:32.221Z,101637.94
2022-10-28T11:59:07.840Z,101646.81
2022-10-28T12:01:53.273Z,101649.28
2022-10-28T12:04:25.442Z,101648.44
2022-10-28T12:07:33.219Z,101614.38
2022-10-28T12:10:20.024Z,101628.00
2022-10-28T12:13:03.585Z,101613.97
2022-10-28T12:15:54.227Z,101626.09
2022-10-28T12:18:23.404Z,101628.50
2022-10-28T12:21:02.365Z,101585.38
2022-10-28T12:23:35.809Z,101582.31
2022-10-28T12:26:08.589Z,101600.09
2022-10-28T12:28:55.675Z,101603.66
2022-10-28T12:32:00.987Z,101602.09
2022-10-28T12:37:16.613Z,101598.63
2022-10-28T12:39:56.354Z,101617.66
2022-10-28T12:42:27.928Z,101620.84
2022-10-28T12:45:00.707Z,101611.47
2022-10-28T12:47:46.576Z,101594.84
2022-10-28T12:50:34.483Z,101605.44
2022-10-28T12:53:24.656Z,101597.75
2022-10-28T12:56:14.403Z,101602.44
2022-10-28T12:58:53.269Z,101608.75
2022-10-28T13:01:24.466Z,101568.06
2022-10-28T13:03:51.359Z,101563.13
2022-10-28T13:06:30.120Z,101588.66
2022-10-28T13:09:21.510Z,101589.34
2022-10-28T13:12:00.843Z,101597.47
2022-10-28T13:14:30.421Z,101610.09
2022-10-28T13:17:27.629Z,101610.66
2022-10-28T13:19:54.141Z,101593.84
2022-10-28T13:22:35.970Z,101596.03
2022-10-28T13:25:21.245Z,101600.47
2022-10-28T13:27:59.316Z,101581.09
2022-10-28T13:30:27.332Z,101572.41
2022-10-28T13:33:23.297Z,101594.94
2022-10-28T13:35:50.935Z,101599.13
2022-10-28T13:38:23.496Z,101599.31
2022-10-28T13:43:52.074Z,101603.09
2022-10-28T13:46:56.124Z,101597.84
2022-10-28T13:49:24.844Z,101580.50
2022-10-28T13:52:02.541Z,101590.03
2022-10-28T13:54:53.978Z,101603.91
2022-10-28T13:57:24.158Z,101598.25
2022-10-28T13:59:55.650Z,101584.81
2022-10-28T14:02:35.969Z,101601.06
2022-10-28T14:05:15.532Z,101609.25
2022-10-28T14:07:53.565Z,101599.06
2022-10-28T14:10:26.620Z,101602.34
2022-10-28T14:13:18.715Z,101603.22
2022-10-28T14:15:48.248Z,101567.25
2022-10-28T14:18:41.371Z,101592.91
2022-10-28T14:21:02.497Z,101565.69
2022-10-28T14:23:29.042Z,101600.94
2022-10-28T14:25:56.250Z,101612.94
2022-10-28T14:28:31.996Z,101617.41
2022-10-28T14:31:07.956Z,101617.34
2022-10-28T14:33:34.560Z,101606.16
2022-10-28T14:36:36.222Z,101599.00
2022-10-28T14:39:21.463Z,101608.38
2022-10-28T14:42:06.272Z,101605.09
2022-10-28T14:44:55.621Z,101605.84
2022-10-28T14:47:49.751Z,101598.97
2022-10-28T14:50:21.255Z,101596.75
2022-10-28T14:52:50.582Z,101594.34
2022-10-28T14:55:24.885Z,101572.00
2022-10-28T14:57:52.045Z,101598.59
2022-10-28T15:00:21.564Z,101577.19
2022-10-28T15:02:48.504Z,101584.56
2022-10-28T15:05:20.615Z,101560.88
2022-10-28T15:07:48.143Z,101571.47
2022-10-28T15:10:15.526Z,101598.56
2022-10-28T15:12:45.749Z,101587.19
2022-10-28T15:15:20.456Z,101610.97
2022-10-28T15:17:47.219Z,101612.69
2022-10-28T15:20:32.350Z,101596.28
2022-10-28T15:23:15.927Z,101613.19
2022-10-28T15:25:42.617Z,101612.28
2022-10-28T15:28:13.646Z,101593.16
2022-10-28T15:30:46.386Z,101601.94
2022-10-28T15:33:32.871Z,101606.34
2022-10-28T15:36:22.561Z,101605.34
2022-10-28T15:38:50.650Z,101603.22
2022-10-28T15:41:23.888Z,101607.03
2022-10-28T15:43:59.547Z,101596.59
2022-10-28T15:46:27.555Z,101594.44
2022-10-28T15:48:56.353Z,101595.94
2022-10-28T15:51:23.545Z,101563.94
2022-10-28T15:53:55.098Z,101601.66
2022-10-28T15:56:26.706Z,101603.47
2022-10-28T15:58:59.058Z,101601.53
2022-10-28T16:01:28.579Z,101602.09
2022-10-28T16:03:55.395Z,101570.69
2022-10-28T16:06:37.035Z,101582.91
2022-10-28T16:09:25.851Z,101592.19
2022-10-28T16:11:57.514Z,101568.31
2022-10-28T16:14:33.629Z,101597.34
2022-10-28T16:17:24.795Z,101566.41
2022-10-28T16:20:16.994Z,101591.69
2022-10-28T16:22:46.575Z,101591.63
2022-10-28T16:25:20.586Z,101579.53
2022-10-28T16:27:48.537Z,101608.31
2022-10-28T16:30:15.613Z,101601.81
2022-10-28T16:32:48.498Z,101608.19
2022-10-28T16:35:18.450Z,101606.38
2022-10-28T16:37:49.378Z,101589.66
2022-10-28T16:40:45.623Z,101616.81
2022-10-28T16:43:04.341Z,101587.28
2022-10-28T16:45:30.917Z,101612.47
2022-10-28T16:47:57.868Z,101594.44
2022-10-28T16:50:24.613Z,101613.59
2022-10-28T16:52:51.255Z,101609.84
2022-10-28T16:55:19.391Z,101609.03
2022-10-28T16:57:45.976Z,101609.78
2022-10-28T17:00:15.973Z,101610.09
2022-10-28T17:02:42.854Z,101612.00
2022-10-28T17:05:18.952Z,101611.19
2022-10-28T17:07:45.533Z,101597.50
2022-10-28T17:10:12.991Z,101591.94
2022-10-28T17:12:40.042Z,101592.94
2022-10-28T17:15:07.269Z,101608.69
2022-10-28T17:17:33.938Z,101612.59
2022-10-28T17:20:00.612Z,101605.75
2022-10-28T17:22:27.325Z,101604.72
2022-10-28T17:24:54.619Z,101603.69
2022-10-28T17:27:21.552Z,101615.38
2022-10-28T17:29:48.181Z,101619.88
2022-10-28T17:32:15.230Z,101619.06
2022-10-28T17:34:42.025Z,101605.75
2022-10-28T17:37:09.023Z,101615.63
2022-10-28T17:39:35.800Z,101594.16
2022-10-28T17:42:04.262Z,101603.91
2022-10-28T17:44:30.898Z,101588.38
2022-10-28T17:46:57.499Z,101595.47
2022-10-28T17:49:24.100Z,101613.72
2022-10-28T17:51:52.222Z,101597.78
2022-10-28T17:54:18.835Z,101605.75
2022-10-28T17:56:47.070Z,101601.63
2022-10-28T17:59:13.673Z,101576.75
2022-10-28T18:01:40.409Z,101580.03
2022-10-28T18:04:08.442Z,101586.31
2022-10-28T18:06:35.080Z,101588.19
2022-10-28T18:09:01.738Z,101580.47
2022-10-28T18:11:31.316Z,101567.03
2022-10-28T18:13:58.209Z,101585.44
2022-10-28T18:16:28.234Z,101592.44
2022-10-28T18:18:56.985Z,101594.09
2022-10-28T18:21:24.681Z,101570.63
2022-10-28T18:23:52.925Z,101569.69
2022-10-28T18:26:20.228Z,101569.19
2022-10-28T18:28:47.383Z,101567.66
2022-10-28T18:31:15.919Z,101580.59
2022-10-28T18:33:43.611Z,101568.31
2022-10-28T18:36:15.830Z,101566.81
2022-10-28T18:38:42.562Z,101588.56
2022-10-28T18:41:13.638Z,101599.00
2022-10-28T18:43:40.915Z,101567.91
2022-10-28T18:46:08.300Z,101579.59
2022-10-28T18:48:35.330Z,101576.59
2022-10-28T18:51:07.442Z,101571.44
2022-10-28T18:53:39.729Z,101598.34
2022-10-28T18:56:10.215Z,101581.38
2022-10-28T18:58:37.026Z,101581.91
2022-10-28T19:01:10.016Z,101594.38
2022-10-28T19:03:37.314Z,101587.63
2022-10-28T19:06:06.866Z,101593.16
2022-10-28T19:08:35.328Z,101609.22
2022-10-28T19:11:02.772Z,101607.59
2022-10-28T19:13:33.077Z,101600.84
2022-10-28T19:15:59.706Z,101582.84
2022-10-28T19:18:26.467Z,101553.28
2022-10-28T19:20:54.534Z,101602.81
2022-10-28T19:23:21.245Z,101606.28
2022-10-28T19:25:57.125Z,101593.28
2022-10-28T19:28:24.683Z,101611.53
2022-10-28T19:31:00.030Z,101607.88
2022-10-28T19:33:27.987Z,101574.72
2022-10-28T19:35:54.691Z,101604.91
2022-10-28T19:38:21.361Z,101573.91
2022-10-28T19:40:47.982Z,101593.31
2022-10-28T19:43:14.713Z,101591.81
2022-10-28T19:45:41.351Z,101558.78
2022-10-28T19:48:08.214Z,101595.91
2022-10-28T19:50:35.042Z,101606.09
2022-10-28T19:53:01.715Z,101593.38
2022-10-28T19:55:28.347Z,101593.50
2022-10-28T19:57:55.496Z,101609.19
2022-10-28T20:00:22.491Z,101606.59
2022-10-28T20:02:49.094Z,101599.75
2022-10-28T20:05:15.824Z,101606.25
2022-10-28T20:07:42.405Z,101616.06
2022-10-28T20:10:09.200Z,101601.19
2022-10-28T20:12:35.770Z,101597.84
2022-10-28T20:15:02.362Z,101589.06
2022-10-28T20:17:29.034Z,101601.28
2022-10-28T20:19:55.603Z,101592.59
2022-10-28T20:22:22.161Z,101621.22
2022-10-28T20:24:49.568Z,101616.72
2022-10-28T20:27:16.153Z,101628.31
2022-10-28T20:29:42.777Z,101620.47
2022-10-28T20:32:10.531Z,101617.41
2022-10-28T20:34:37.369Z,101632.06
2022-10-28T20:37:04.017Z,101612.53
2022-10-28T20:39:30.613Z,101633.63
2022-10-28T20:41:57.221Z,101614.69
2022-10-28T20:44:23.878Z,101623.72
2022-10-28T20:46:50.826Z,101617.97
2022-10-28T20:49:17.416Z,101620.25
2022-10-28T20:51:44.027Z,101613.38
2022-10-28T20:54:10.689Z,101617.84
2022-10-28T20:56:38.665Z,101634.34
2022-10-28T20:59:05.739Z,101616.91
2022-10-28T21:01:38.131Z,101621.03
2022-10-28T21:04:07.299Z,101629.81
2022-10-28T21:06:34.689Z,101633.47
2022-10-28T21:09:01.481Z,101626.75
2022-10-28T21:11:28.669Z,101637.78
2022-10-28T21:14:01.374Z,101627.88
2022-10-28T21:16:29.358Z,101626.28
2022-10-28T21:18:56.274Z,101630.78
2022-10-28T21:21:24.284Z,101629.06
2022-10-28T21:23:51.139Z,101621.19
2022-10-28T21:26:17.761Z,101616.84
2022-10-28T21:28:46.190Z,101613.03
2022-10-28T21:31:15.323Z,101622.03
2022-10-28T21:33:42.955Z,101613.41
2022-10-28T21:36:11.994Z,101616.03
2022-10-28T21:38:38.667Z,101582.19
2022-10-28T21:41:08.781Z,101613.47
2022-10-28T21:43:38.044Z,101611.72
2022-10-28T21:46:05.419Z,101615.97
2022-10-28T21:48:33.285Z,101620.28
2022-10-28T21:51:01.933Z,101596.88
2022-10-28T21:53:32.523Z,101619.53
2022-10-28T21:56:16.290Z,101594.41
2022-10-28T21:58:44.013Z,101611.84
2022-10-28T22:01:16.161Z,101604.16
2022-10-28T22:03:43.136Z,101612.00
2022-10-28T22:06:09.921Z,101619.78
2022-10-28T22:08:36.745Z,101604.94
2022-10-28T22:11:06.655Z,101612.84
2022-10-28T22:13:33.712Z,101611.00
2022-10-28T22:16:02.501Z,101608.47
2022-10-28T22:18:30.157Z,101592.03
2022-10-28T22:20:57.650Z,101616.41
2022-10-28T22:23:24.370Z,101608.25
2022-10-28T22:25:50.954Z,101607.47
2022-10-28T22:28:17.517Z,101612.50
2022-10-28T22:30:44.169Z,101590.09
2022-10-28T22:33:10.809Z,101592.03
2022-10-28T22:35:37.424Z,101593.66
2022-10-28T22:38:05.055Z,101608.19
2022-10-28T22:40:31.625Z,101610.13
2022-10-28T22:42:58.210Z,101603.44
2022-10-28T22:45:24.878Z,101588.53
2022-10-28T22:47:51.490Z,101589.41
2022-10-28T22:50:18.110Z,101588.53
2022-10-28T22:52:45.865Z,101595.47
2022-10-28T22:55:12.462Z,101601.78
2022-10-28T22:57:39.447Z,101595.75
2022-10-28T23:00:06.918Z,101571.25
2022-10-28T23:02:33.710Z,101577.88
2022-10-28T23:05:00.503Z,101534.16
2022-10-28T23:07:27.264Z,101575.00
2022-10-28T23:09:53.821Z,101581.72
2022-10-28T23:12:20.397Z,101578.94
2022-10-28T23:14:46.991Z,101575.53
2022-10-28T23:17:13.569Z,101542.59
2022-10-28T23:19:40.141Z,101563.28
2022-10-28T23:22:07.841Z,101563.38
2022-10-28T23:24:34.459Z,101589.97
2022-10-28T23:27:01.038Z,101578.34
2022-10-28T23:29:27.633Z,101555.75
2022-10-28T23:31:54.199Z,101563.66
2022-10-28T23:34:20.758Z,101562.94
2022-10-28T23:36:50.282Z,101464.53
2022-10-28T23:39:16.857Z,101584.34
2022-10-28T23:41:43.425Z,101587.69
2022-10-28T23:44:10.029Z,101569.50
2022-10-28T23:46:37.627Z,101560.69
2022-10-28T23:49:04.385Z,101590.16
2022-10-28T23:51:31.046Z,101571.97
2022-10-28T23:53:58.343Z,101554.22
2022-10-28T23:56:24.923Z,101592.69
2022-10-28T23:58:51.603Z,101599.63
